createdAt,value
2018-12-15T00:00:21.303Z,2.30
2018-12-15T00:02:49.453Z,2.30
2018-12-15T00:05:17.717Z,2.40
2018-12-15T00:07:45.913Z,2.40
2018-12-15T00:10:14.052Z,2.40
2018-12-15T00:12:42.170Z,2.40
2018-12-15T00:15:10.453Z,2.40
2018-12-15T00:17:38.588Z,2.30
2018-12-15T00:20:07.556Z,2.30
2018-12-15T00:22:35.946Z,2.20
2018-12-15T00:25:04.426Z,2.30
2018-12-15T00:27:32.620Z,2.30
2018-12-15T00:30:00.823Z,2.30
2018-12-15T00:32:29.038Z,2.30
2018-12-15T00:34:57.169Z,2.30
2018-12-15T00:37:25.365Z,2.30
2018-12-15T00:39:53.501Z,2.20
2018-12-15T00:42:32.343Z,2.30
2018-12-15T00:45:00.690Z,2.30
2018-12-15T00:47:29.680Z,2.20
2018-12-15T00:49:59.877Z,2.30
2018-12-15T00:52:29.020Z,2.40
2018-12-15T00:54:57.162Z,2.30
2018-12-15T00:57:25.283Z,2.30
2018-12-15T00:59:53.404Z,2.40
2018-12-15T01:02:21.581Z,2.40
2018-12-15T01:04:49.848Z,2.50
2018-12-15T01:07:18.055Z,2.50
2018-12-15T01:09:46.157Z,2.30
2018-12-15T01:12:14.281Z,2.40
2018-12-15T01:14:42.376Z,2.40
2018-12-15T01:17:10.661Z,2.30
2018-12-15T01:19:38.783Z,2.30
2018-12-15T01:22:07.054Z,2.30
2018-12-15T01:24:35.175Z,2.30
2018-12-15T01:27:03.295Z,2.40
2018-12-15T01:29:31.472Z,2.30
2018-12-15T01:31:59.777Z,2.40
2018-12-15T01:34:27.962Z,2.40
2018-12-15T01:36:56.077Z,2.40
2018-12-15T01:39:24.170Z,2.40
2018-12-15T01:41:52.353Z,2.40
2018-12-15T01:44:20.454Z,2.40
2018-12-15T01:46:48.627Z,2.40
2018-12-15T01:49:16.798Z,2.30
2018-12-15T01:51:44.973Z,2.40
2018-12-15T01:54:13.377Z,2.30
2018-12-15T01:56:41.505Z,2.30
2018-12-15T01:59:16.408Z,2.40
2018-12-15T02:01:44.721Z,2.40
2018-12-15T02:04:12.860Z,2.50
2018-12-15T02:06:41.136Z,2.60
2018-12-15T02:09:09.510Z,2.50
2018-12-15T02:11:37.642Z,2.50
2018-12-15T02:14:05.778Z,2.50
2018-12-15T02:16:34.010Z,2.50
2018-12-15T02:19:02.154Z,2.30
2018-12-15T02:21:30.281Z,2.40
2018-12-15T02:23:58.435Z,2.40
2018-12-15T02:26:26.576Z,2.40
2018-12-15T02:28:54.701Z,2.40
2018-12-15T02:31:23.965Z,2.40
2018-12-15T02:33:52.394Z,2.40
2018-12-15T02:36:20.809Z,2.50
2018-12-15T02:38:49.188Z,2.50
2018-12-15T02:41:17.373Z,2.60
2018-12-15T02:43:45.564Z,2.50
2018-12-15T02:46:13.686Z,2.50
2018-12-15T02:48:41.794Z,2.50
2018-12-15T02:51:10.037Z,2.50
2018-12-15T02:53:38.125Z,2.50
2018-12-15T02:56:06.251Z,2.40
2018-12-15T02:58:34.423Z,2.50
2018-12-15T03:01:02.586Z,2.40
2018-12-15T03:03:30.832Z,2.40
2018-12-15T03:05:59.001Z,2.50
2018-12-15T03:08:27.165Z,2.50
2018-12-15T03:10:55.401Z,2.50
2018-12-15T03:13:23.628Z,2.60
2018-12-15T03:15:51.806Z,2.60
2018-12-15T03:18:19.997Z,2.60
2018-12-15T03:21:00.610Z,2.60
2018-12-15T03:23:28.705Z,2.60
2018-12-15T03:25:57.395Z,2.60
2018-12-15T03:28:25.569Z,2.70
2018-12-15T03:30:53.691Z,2.70
2018-12-15T03:33:21.953Z,2.60
2018-12-15T03:35:50.255Z,2.70
2018-12-15T03:38:18.504Z,2.70
2018-12-15T03:40:46.617Z,2.70
2018-12-15T03:43:14.778Z,2.60
2018-12-15T03:45:42.874Z,2.60
2018-12-15T03:48:10.983Z,2.60
2018-12-15T03:50:39.171Z,2.50
2018-12-15T03:53:07.266Z,2.40
2018-12-15T03:55:35.425Z,2.40
2018-12-15T03:58:03.538Z,2.40
2018-12-15T04:00:31.745Z,2.50
2018-12-15T04:02:59.990Z,2.50
2018-12-15T04:05:28.123Z,2.50
2018-12-15T04:07:56.283Z,2.50
2018-12-15T04:10:24.418Z,2.50
2018-12-15T04:12:52.542Z,2.50
2018-12-15T04:15:22.269Z,2.60
2018-12-15T04:17:50.397Z,2.50
2018-12-15T04:20:18.529Z,2.50
2018-12-15T04:22:46.725Z,2.30
2018-12-15T04:25:14.856Z,2.30
2018-12-15T04:27:42.973Z,2.20
2018-12-15T04:30:11.098Z,2.10
2018-12-15T04:32:45.133Z,2.20
2018-12-15T04:35:09.368Z,2.30
2018-12-15T04:37:37.589Z,2.30
2018-12-15T04:40:07.268Z,2.20
2018-12-15T04:42:35.497Z,2.30
2018-12-15T04:45:03.933Z,2.30
2018-12-15T04:47:32.200Z,2.30
2018-12-15T04:50:00.289Z,2.20
2018-12-15T04:52:28.381Z,2.20
2018-12-15T04:54:56.535Z,2.00
2018-12-15T04:57:24.886Z,2.00
2018-12-15T04:59:52.999Z,2.00
2018-12-15T05:02:21.157Z,2.00
2018-12-15T05:04:49.330Z,2.10
2018-12-15T05:07:17.496Z,2.20
2018-12-15T05:09:45.590Z,2.10
2018-12-15T05:12:13.758Z,2.10
2018-12-15T05:14:41.987Z,2.10
2018-12-15T05:17:10.162Z,2.10
2018-12-15T05:19:38.417Z,2.20
2018-12-15T05:22:06.837Z,2.10
2018-12-15T05:24:34.942Z,2.10
2018-12-15T05:27:03.103Z,2.10
2018-12-15T05:29:31.201Z,2.20
2018-12-15T05:31:59.463Z,2.20
2018-12-15T05:34:27.686Z,2.10
2018-12-15T05:36:55.803Z,2.20
2018-12-15T05:39:24.086Z,2.20
2018-12-15T05:41:52.245Z,2.10
2018-12-15T05:44:20.451Z,2.10
2018-12-15T05:46:49.169Z,2.10
2018-12-15T05:49:17.422Z,2.10
2018-12-15T05:51:45.551Z,2.10
2018-12-15T05:54:13.751Z,2.10
2018-12-15T05:56:41.957Z,2.10
2018-12-15T05:59:10.083Z,2.10
2018-12-15T06:01:38.224Z,2.10
2018-12-15T06:04:06.365Z,2.20
2018-12-15T06:06:34.492Z,2.00
2018-12-15T06:09:03.069Z,2.00
2018-12-15T06:11:31.299Z,2.00
2018-12-15T06:13:59.432Z,2.10
2018-12-15T06:16:27.938Z,2.10
2018-12-15T06:18:56.078Z,2.10
2018-12-15T06:21:24.406Z,2.10
2018-12-15T06:23:52.525Z,2.20
2018-12-15T06:26:20.646Z,2.20
2018-12-15T06:28:48.769Z,2.10
2018-12-15T06:31:17.056Z,2.10
2018-12-15T06:33:45.179Z,2.00
2018-12-15T06:36:13.392Z,2.10
2018-12-15T06:38:41.616Z,2.00
2018-12-15T06:41:09.757Z,2.00
2018-12-15T06:43:38.234Z,2.00
2018-12-15T06:46:06.651Z,1.90
2018-12-15T06:48:38.093Z,1.80
2018-12-15T06:51:05.049Z,1.90
2018-12-15T06:53:33.213Z,1.90
2018-12-15T06:56:01.358Z,1.90
2018-12-15T06:58:29.534Z,1.90
2018-12-15T07:00:57.686Z,2.00
2018-12-15T07:03:36.062Z,1.90
2018-12-15T07:06:04.350Z,1.90
2018-12-15T07:08:32.583Z,1.90
2018-12-15T07:11:00.725Z,2.00
2018-12-15T07:13:28.910Z,1.90
2018-12-15T07:15:57.202Z,1.90
2018-12-15T07:18:25.449Z,1.90
2018-12-15T07:20:53.594Z,1.80
2018-12-15T07:23:21.724Z,1.80
2018-12-15T07:25:50.045Z,1.80
2018-12-15T07:28:18.259Z,1.90
2018-12-15T07:30:46.401Z,1.80
2018-12-15T07:33:14.524Z,1.80
2018-12-15T07:35:42.736Z,1.90
2018-12-15T07:38:10.973Z,1.80
2018-12-15T07:40:39.093Z,1.90
2018-12-15T07:43:07.232Z,1.80
2018-12-15T07:45:35.359Z,1.90
2018-12-15T07:48:03.549Z,1.80
2018-12-15T07:50:31.683Z,1.80
2018-12-15T07:52:59.843Z,1.70
2018-12-15T07:55:27.973Z,1.70
2018-12-15T07:57:56.115Z,1.70
2018-12-15T08:00:24.319Z,1.60
2018-12-15T08:02:52.458Z,1.70
2018-12-15T08:05:20.601Z,1.70
2018-12-15T08:07:48.747Z,1.70
2018-12-15T08:10:21.274Z,1.60
2018-12-15T08:12:53.639Z,1.70
2018-12-15T08:15:21.765Z,1.70
2018-12-15T08:17:50.034Z,1.70
2018-12-15T08:20:18.391Z,1.80
2018-12-15T08:22:46.533Z,1.80
2018-12-15T08:25:14.662Z,1.70
2018-12-15T08:27:42.882Z,1.80
2018-12-15T08:30:11.506Z,1.70
2018-12-15T08:32:39.654Z,1.60
2018-12-15T08:35:07.937Z,1.50
2018-12-15T08:37:36.133Z,1.60
2018-12-15T08:40:04.735Z,1.60
2018-12-15T08:42:32.878Z,1.70
2018-12-15T08:45:01.102Z,1.70
2018-12-15T08:47:29.430Z,1.70
2018-12-15T08:49:57.728Z,1.80
2018-12-15T08:52:26.026Z,1.80
2018-12-15T08:54:54.206Z,1.80
2018-12-15T08:57:24.849Z,1.90
2018-12-15T08:59:53.596Z,1.90
2018-12-15T09:02:22.031Z,2.00
2018-12-15T09:04:50.261Z,2.20
2018-12-15T09:07:18.463Z,1.90
2018-12-15T09:09:46.629Z,2.00
2018-12-15T09:12:14.906Z,2.10
2018-12-15T09:14:46.963Z,2.10
2018-12-15T09:17:15.301Z,2.10
2018-12-15T09:19:43.429Z,2.20
2018-12-15T09:22:11.760Z,2.20
2018-12-15T09:24:40.082Z,2.30
2018-12-15T09:27:08.199Z,2.30
2018-12-15T09:29:36.334Z,2.30
2018-12-15T09:32:04.547Z,2.30
2018-12-15T09:34:32.753Z,2.30
2018-12-15T09:37:00.970Z,2.10
2018-12-15T09:39:29.193Z,2.00
2018-12-15T09:41:57.374Z,2.10
2018-12-15T09:44:25.478Z,2.10
2018-12-15T09:46:53.635Z,2.00
2018-12-15T09:49:21.870Z,2.00
2018-12-15T09:51:50.048Z,2.10
2018-12-15T09:54:18.291Z,2.00
2018-12-15T09:56:46.527Z,1.90
2018-12-15T09:59:14.723Z,2.00
2018-12-15T10:01:42.951Z,2.10
2018-12-15T10:04:11.101Z,2.20
2018-12-15T10:06:39.284Z,2.20
2018-12-15T10:09:07.712Z,2.20
2018-12-15T10:11:36.275Z,2.20
2018-12-15T10:14:04.598Z,2.10
2018-12-15T10:16:32.770Z,2.10
2018-12-15T10:19:00.964Z,2.00
2018-12-15T10:21:29.215Z,2.00
2018-12-15T10:23:57.393Z,2.10
2018-12-15T10:26:25.658Z,2.10
2018-12-15T10:28:53.745Z,2.20
2018-12-15T10:31:27.353Z,2.20
2018-12-15T10:33:55.526Z,2.20
2018-12-15T10:36:23.779Z,2.20
2018-12-15T10:38:51.881Z,2.20
2018-12-15T10:41:20.127Z,2.10
2018-12-15T10:43:48.267Z,2.10
2018-12-15T10:46:16.474Z,2.10
2018-12-15T10:48:44.686Z,2.10
2018-12-15T10:51:12.880Z,2.20
2018-12-15T10:53:41.013Z,2.10
2018-12-15T10:56:09.243Z,2.10
2018-12-15T10:58:37.441Z,2.10
2018-12-15T11:01:11.253Z,2.20
2018-12-15T11:03:46.486Z,2.20
2018-12-15T11:06:15.338Z,2.10
2018-12-15T11:08:43.486Z,2.00
2018-12-15T11:11:11.687Z,2.00
2018-12-15T11:13:39.808Z,1.90
2018-12-15T11:16:07.938Z,1.90
2018-12-15T11:18:36.090Z,1.70
2018-12-15T11:21:04.290Z,1.80
2018-12-15T11:23:32.511Z,1.80
2018-12-15T11:26:00.662Z,1.90
2018-12-15T11:28:28.800Z,2.00
2018-12-15T11:30:57.123Z,1.90
2018-12-15T11:33:25.320Z,1.90
2018-12-15T11:35:53.537Z,2.00
2018-12-15T11:38:21.721Z,2.10
2018-12-15T11:40:50.006Z,2.10
2018-12-15T11:43:18.492Z,2.10
2018-12-15T11:45:46.792Z,2.20
2018-12-15T11:48:15.022Z,2.20
2018-12-15T11:50:43.177Z,2.10
2018-12-15T11:53:11.276Z,2.10
2018-12-15T11:55:39.513Z,2.00
2018-12-15T11:58:07.648Z,1.90
2018-12-15T12:00:35.853Z,1.80
2018-12-15T12:03:04.099Z,1.80
2018-12-15T12:05:32.269Z,1.90
2018-12-15T12:08:00.382Z,1.90
2018-12-15T12:10:28.662Z,1.90
2018-12-15T12:12:56.911Z,1.90
2018-12-15T12:15:28.248Z,1.90
2018-12-15T12:17:56.409Z,1.90
2018-12-15T12:20:24.642Z,1.90
2018-12-15T12:22:52.738Z,1.80
2018-12-15T12:25:20.969Z,1.90
2018-12-15T12:27:49.205Z,1.80
2018-12-15T12:30:17.475Z,1.60
2018-12-15T12:32:45.550Z,1.70
2018-12-15T12:35:13.779Z,1.60
2018-12-15T12:37:42.055Z,1.60
2018-12-15T12:40:10.269Z,1.70
2018-12-15T12:42:38.456Z,1.70
2018-12-15T12:45:06.796Z,1.70
2018-12-15T12:47:34.955Z,1.50
2018-12-15T12:50:03.160Z,1.70
2018-12-15T12:52:31.258Z,1.50
2018-12-15T12:54:59.475Z,1.50
2018-12-15T12:57:27.599Z,1.50
2018-12-15T12:59:55.691Z,1.50
2018-12-15T13:02:23.923Z,1.60
2018-12-15T13:04:52.217Z,1.50
2018-12-15T13:07:20.408Z,1.60
2018-12-15T13:09:48.565Z,1.60
2018-12-15T13:12:16.727Z,1.60
2018-12-15T13:14:44.830Z,1.70
2018-12-15T13:17:13.011Z,1.70
2018-12-15T13:19:41.283Z,1.80
2018-12-15T13:22:09.457Z,1.80
2018-12-15T13:24:37.632Z,1.80
2018-12-15T13:27:05.950Z,1.90
2018-12-15T13:29:34.149Z,2.00
2018-12-15T13:32:02.364Z,1.80
2018-12-15T13:34:30.582Z,1.70
2018-12-15T13:37:07.121Z,1.60
2018-12-15T13:39:35.365Z,1.60
2018-12-15T13:42:03.610Z,1.60
2018-12-15T13:44:31.714Z,1.50
2018-12-15T13:46:59.883Z,1.60
2018-12-15T13:49:28.110Z,1.80
2018-12-15T13:51:56.321Z,1.80
2018-12-15T13:54:24.427Z,1.90
2018-12-15T13:56:52.661Z,1.90
2018-12-15T13:59:20.770Z,1.90
2018-12-15T14:01:48.993Z,2.00
2018-12-15T14:04:17.201Z,2.00
2018-12-15T14:06:45.375Z,1.90
2018-12-15T14:09:13.476Z,1.80
2018-12-15T14:11:41.708Z,1.60
2018-12-15T14:14:09.938Z,1.50
2018-12-15T14:16:38.162Z,1.40
2018-12-15T14:19:06.315Z,1.40
2018-12-15T14:21:34.476Z,1.30
2018-12-15T14:24:02.723Z,1.40
2018-12-15T14:26:30.961Z,1.60
2018-12-15T14:28:59.070Z,1.80
2018-12-15T14:31:27.307Z,1.70
2018-12-15T14:33:55.553Z,1.70
2018-12-15T14:36:23.770Z,1.70
2018-12-15T14:38:51.934Z,1.80
2018-12-15T14:41:20.082Z,1.80
2018-12-15T14:43:48.252Z,1.80
2018-12-15T14:46:16.424Z,1.90
2018-12-15T14:48:44.632Z,1.80
2018-12-15T14:51:12.766Z,1.80
2018-12-15T14:53:41.023Z,1.80
2018-12-15T14:56:09.151Z,1.80
2018-12-15T14:58:37.352Z,1.90
2018-12-15T15:01:05.467Z,1.90
2018-12-15T15:03:33.592Z,1.90
2018-12-15T15:06:01.709Z,1.80
2018-12-15T15:08:29.826Z,1.90
2018-12-15T15:10:58.224Z,1.90
2018-12-15T15:13:26.408Z,1.80
2018-12-15T15:15:54.665Z,1.70
2018-12-15T15:18:22.756Z,1.70
2018-12-15T15:20:50.932Z,1.70
2018-12-15T15:23:19.036Z,1.70
2018-12-15T15:25:47.212Z,1.70
2018-12-15T15:28:15.333Z,1.60
2018-12-15T15:30:43.432Z,1.50
2018-12-15T15:33:11.549Z,1.50
2018-12-15T15:35:59.941Z,1.50
2018-12-15T15:38:28.187Z,1.50
2018-12-15T15:40:56.323Z,1.50
2018-12-15T15:43:24.497Z,1.50
2018-12-15T15:45:52.699Z,1.50
2018-12-15T15:48:20.896Z,1.30
2018-12-15T15:50:49.008Z,1.40
2018-12-15T15:53:17.205Z,1.40
2018-12-15T16:02:40.090Z,1.30
2018-12-15T16:05:08.399Z,1.20
2018-12-15T16:07:36.509Z,1.00
2018-12-15T16:10:08.748Z,1.10
2018-12-15T16:12:37.032Z,1.30
2018-12-15T16:15:06.110Z,1.40
2018-12-15T16:17:34.542Z,1.40
2018-12-15T16:20:02.801Z,1.50
2018-12-15T16:22:30.942Z,1.50
2018-12-15T16:24:59.101Z,1.50
2018-12-15T16:27:27.306Z,1.50
2018-12-15T16:29:55.529Z,1.60
2018-12-15T16:32:23.775Z,1.50
2018-12-15T16:34:51.969Z,1.50
2018-12-15T16:37:20.293Z,1.50
2018-12-15T16:39:48.565Z,1.40
2018-12-15T16:42:16.780Z,1.40
2018-12-15T16:44:44.905Z,1.40
2018-12-15T16:47:13.037Z,1.30
2018-12-15T16:49:41.751Z,1.40
2018-12-15T16:52:09.960Z,1.40
2018-12-15T16:54:38.300Z,1.40
2018-12-15T16:57:06.591Z,1.30
2018-12-15T16:59:34.767Z,1.30
2018-12-15T17:02:02.982Z,1.30
2018-12-15T17:04:31.110Z,1.30
2018-12-15T17:06:59.238Z,1.30
2018-12-15T17:09:27.367Z,1.20
2018-12-15T17:11:55.497Z,1.40
2018-12-15T17:14:23.727Z,1.50
2018-12-15T17:16:51.995Z,1.50
2018-12-15T17:19:20.280Z,1.50
2018-12-15T17:21:48.412Z,1.50
2018-12-15T17:24:16.553Z,1.50
2018-12-15T17:26:45.248Z,1.50
2018-12-15T17:29:13.460Z,1.30
2018-12-15T17:31:41.660Z,1.20
2018-12-15T17:34:09.940Z,1.10
2018-12-15T17:36:38.319Z,1.00
2018-12-15T17:39:07.784Z,1.10
2018-12-15T17:41:36.060Z,1.10
2018-12-15T17:44:04.311Z,1.20
2018-12-15T17:46:32.578Z,1.20
2018-12-15T17:49:00.815Z,1.30
2018-12-15T17:51:29.094Z,1.30
2018-12-15T17:53:57.317Z,1.30
2018-12-15T17:56:25.563Z,1.40
2018-12-15T17:58:53.679Z,1.30
2018-12-15T18:01:21.946Z,1.20
2018-12-15T18:03:50.068Z,1.20
2018-12-15T18:06:18.583Z,1.30
2018-12-15T18:08:46.783Z,1.30
2018-12-15T18:11:14.969Z,1.30
2018-12-15T18:13:43.227Z,1.10
2018-12-15T18:16:11.352Z,1.00
2018-12-15T18:18:39.483Z,1.10
2018-12-15T18:21:09.969Z,1.10
2018-12-15T18:23:37.826Z,1.10
2018-12-15T18:26:06.083Z,1.10
2018-12-15T18:28:34.299Z,1.00
2018-12-15T18:31:02.441Z,1.00
2018-12-15T18:33:36.873Z,0.90
2018-12-15T18:36:00.754Z,0.90
2018-12-15T18:38:28.947Z,1.00
2018-12-15T18:40:57.205Z,0.90
2018-12-15T18:43:25.335Z,0.90
2018-12-15T18:45:53.522Z,1.00
2018-12-15T18:48:21.780Z,0.90
2018-12-15T18:50:50.046Z,1.00
2018-12-15T18:53:19.555Z,1.10
2018-12-15T18:55:47.992Z,1.00
2018-12-15T18:58:16.116Z,1.00
2018-12-15T19:00:44.331Z,1.00
2018-12-15T19:03:12.518Z,1.00
2018-12-15T19:05:40.689Z,0.90
2018-12-15T19:08:08.985Z,0.90
2018-12-15T19:10:37.095Z,1.00
2018-12-15T19:13:05.355Z,1.00
2018-12-15T19:15:33.535Z,1.00
2018-12-15T19:18:01.721Z,1.00
2018-12-15T19:20:29.867Z,0.90
2018-12-15T19:22:58.243Z,0.80
2018-12-15T19:25:26.427Z,0.80
2018-12-15T19:27:54.644Z,0.80
2018-12-15T19:30:22.779Z,0.80
2018-12-15T19:32:50.923Z,0.90
2018-12-15T19:35:19.130Z,0.80
2018-12-15T19:37:47.335Z,0.80
2018-12-15T19:40:15.513Z,0.80
2018-12-15T19:42:43.781Z,0.80
2018-12-15T19:45:11.931Z,1.00
2018-12-15T19:47:40.034Z,1.00
2018-12-15T19:50:08.388Z,1.10
2018-12-15T19:52:36.636Z,1.20
2018-12-15T19:55:05.606Z,0.90
2018-12-15T19:57:33.807Z,0.90
2018-12-15T20:00:02.180Z,0.90
2018-12-15T20:02:30.364Z,0.90
2018-12-15T20:04:58.550Z,0.70
2018-12-15T20:07:26.752Z,0.70
2018-12-15T20:09:54.880Z,0.70
2018-12-15T20:12:23.021Z,0.80
2018-12-15T20:14:51.210Z,0.80
2018-12-15T20:17:19.466Z,0.80
2018-12-15T20:19:47.680Z,0.70
2018-12-15T20:22:15.809Z,0.90
2018-12-15T20:24:43.998Z,0.70
2018-12-15T20:27:12.191Z,0.70
2018-12-15T20:29:40.311Z,0.70
2018-12-15T20:32:08.485Z,0.80
2018-12-15T20:34:36.609Z,0.70
2018-12-15T20:37:04.784Z,0.70
2018-12-15T20:39:32.985Z,0.70
2018-12-15T20:42:01.271Z,0.70
2018-12-15T20:44:29.398Z,0.60
2018-12-15T20:46:57.603Z,0.60
2018-12-15T20:49:25.868Z,0.60
2018-12-15T20:51:55.415Z,0.70
2018-12-15T20:54:23.869Z,0.70
2018-12-15T20:56:52.058Z,0.60
2018-12-15T20:59:20.306Z,0.70
2018-12-15T21:01:48.399Z,0.70
2018-12-15T21:04:16.585Z,0.70
2018-12-15T21:06:44.788Z,0.60
2018-12-15T21:09:12.933Z,0.50
2018-12-15T21:11:41.125Z,0.50
2018-12-15T21:14:09.360Z,0.50
2018-12-15T21:16:37.552Z,0.50
2018-12-15T21:19:05.738Z,0.30
2018-12-15T21:21:33.934Z,0.30
2018-12-15T21:24:02.105Z,0.30
2018-12-15T21:26:30.274Z,0.30
2018-12-15T21:28:58.538Z,0.40
2018-12-15T21:31:26.744Z,0.30
2018-12-15T21:33:54.865Z,0.30
2018-12-15T21:36:22.996Z,0.30
2018-12-15T21:38:51.195Z,0.30
2018-12-15T21:41:19.376Z,0.30
2018-12-15T21:43:47.607Z,0.30
2018-12-15T21:46:15.814Z,0.10
2018-12-15T21:48:44.002Z,0.20
2018-12-15T21:51:12.122Z,0.30
2018-12-15T21:53:40.242Z,0.30
2018-12-15T21:56:08.429Z,0.10
2018-12-15T21:58:36.630Z,0.10
2018-12-15T22:01:04.823Z,0.20
2018-12-15T22:03:32.962Z,0.20
2018-12-15T22:06:01.233Z,0.20
2018-12-15T22:08:29.435Z,0.10
2018-12-15T22:10:57.634Z,0.20
2018-12-15T22:13:26.906Z,0.20
2018-12-15T22:15:55.275Z,0.10
2018-12-15T22:18:23.557Z,0.10
2018-12-15T22:20:51.989Z,0.20
2018-12-15T22:23:20.154Z,0.20
2018-12-15T22:25:48.415Z,0.20
2018-12-15T22:28:16.598Z,0.20
2018-12-15T22:30:44.851Z,0.20
2018-12-15T22:33:12.981Z,0.20
2018-12-15T22:35:41.166Z,0.00
2018-12-15T22:38:09.302Z,0.10
2018-12-15T22:40:37.453Z,0.20
2018-12-15T22:43:05.641Z,0.10
2018-12-15T22:45:33.922Z,0.00
2018-12-15T22:48:02.148Z,0.10
2018-12-15T22:50:30.310Z,0.10
2018-12-15T22:52:58.455Z,0.10
2018-12-15T22:55:26.566Z,0.00
2018-12-15T22:57:54.702Z,0.00
2018-12-15T23:00:23.096Z,-0.10
2018-12-15T23:02:51.399Z,0.00
2018-12-15T23:05:21.833Z,0.00
2018-12-15T23:07:49.982Z,0.10
2018-12-15T23:10:18.298Z,0.10
2018-12-15T23:12:46.422Z,0.00
2018-12-15T23:15:14.677Z,0.00
2018-12-15T23:17:42.888Z,0.00
2018-12-15T23:20:11.079Z,0.00
2018-12-15T23:22:39.297Z,0.00
2018-12-15T23:25:07.535Z,0.00
2018-12-15T23:27:35.762Z,-0.10
2018-12-15T23:30:05.033Z,0.00
2018-12-15T23:32:33.589Z,0.00
2018-12-15T23:35:01.712Z,0.00
2018-12-15T23:37:29.836Z,0.00
2018-12-15T23:39:58.115Z,-0.10
2018-12-15T23:42:26.433Z,0.00
2018-12-15T23:44:56.535Z,0.00
2018-12-15T23:47:24.739Z,0.00
2018-12-15T23:49:52.942Z,0.00
2018-12-15T23:52:23.444Z,0.00
2018-12-15T23:54:51.250Z,0.00
2018-12-15T23:57:19.388Z,0.10
2018-12-15T23:59:47.543Z,0.00
